Time;durP1;ratioP1;P1;durP2;ratioP2;P2;SDS_P1;SDS_P2;PMS_P1;PMS_P2;Temp;Humidity;BMP_temperature;BMP_pressure;BME280_temperature;BME280_humidity;BME280_pressure;Samples;Min_cycle;Max_cycle;Signal;HPM_P1;HPM_P2
2020/01/02 00:01:33;;;;;;;57.5;47.7;;;;;;;-0.25;99.07129;971.741;;;;
2020/01/02 00:03:58;;;;;;;61;49.4;;;;;;;-0.23;99.21191;971.7202;;;;
2020/01/02 00:06:23;;;;;;;63.8;50.8;;;;;;;-0.26;99.3291;971.731;;;;
2020/01/02 00:08:49;;;;;;;59.9;48.6;;;;;;;-0.27;99.32715;971.7222;;;;
2020/01/02 00:11:14;;;;;;;59.6;48.8;;;;;;;-0.25;99.41895;971.6955;;;;
2020/01/02 00:13:39;;;;;;;62.4;50.1;;;;;;;-0.25;99.60938;971.6368;;;;
2020/01/02 00:20:55;;;;;;;62.9;49.8;;;;;;;-0.19;99.1416;971.6913;;;;
2020/01/02 00:23:20;;;;;;;60.4;49.1;;;;;;;-0.1;99.04199;971.7023;;;;
2020/01/02 00:25:45;;;;;;;60;48.9;;;;;;;-0.08;98.9873;971.7416;;;;
2020/01/02 00:28:10;;;;;;;60.6;48.2;;;;;;;-0.01;98.97266;971.778;;;;
2020/01/02 00:30:36;;;;;;;64.1;50.3;;;;;;;0.02;99.47168;971.8101;;;;
2020/01/02 00:33:01;;;;;;;69.7;52.3;;;;;;;0.1;98.70605;971.7667;;;;
2020/01/02 00:35:27;;;;;;;68.1;51.7;;;;;;;0.13;98.87012;971.7614;;;;
2020/01/02 00:37:52;;;;;;;74.3;54.1;;;;;;;-0.06;100;971.6972;;;;
2020/01/02 00:40:17;;;;;;;72.3;54.6;;;;;;;0.11;98.93262;971.7408;;;;
2020/01/02 00:42:42;;;;;;;77.3;54.9;;;;;;;-0.2;100;971.7249;;;;
2020/01/02 00:45:07;;;;;;;73.6;53.9;;;;;;;-0.24;100;971.6574;;;;
2020/01/02 00:47:33;;;;;;;68.4;50.1;;;;;;;-0.04;99.16699;971.8098;;;;
2020/01/02 00:49:58;;;;;;;82.3;49.2;;;;;;;-0.28;100;971.865;;;;
2020/01/02 00:52:23;;;;;;;70.7;50.7;;;;;;;-0.13;99.49316;971.8384;;;;
2020/01/02 00:54:48;;;;;;;78.4;53.9;;;;;;;-0.27;99.95313;971.899;;;;
2020/01/02 00:57:13;;;;;;;74.8;53.2;;;;;;;-0.33;100;971.9991;;;;
2020/01/02 00:59:39;;;;;;;120.8;53.4;;;;;;;-0.7;100;971.8621;;;;
2020/01/02 01:02:04;;;;;;;97.8;52.7;;;;;;;-0.66;100;971.8519;;;;
2020/01/02 01:04:29;;;;;;;151.4;52.4;;;;;;;-0.85;100;971.9031;;;;
2020/01/02 01:06:55;;;;;;;95.8;49.8;;;;;;;-0.68;100;971.8514;;;;
2020/01/02 01:09:20;;;;;;;124.7;50.1;;;;;;;-0.61;100;971.82;;;;
2020/01/02 01:11:45;;;;;;;93.4;50.7;;;;;;;-0.61;100;971.91;;;;
2020/01/02 01:14:10;;;;;;;93.8;50.8;;;;;;;-0.6;100;971.878;;;;
2020/01/02 01:16:36;;;;;;;106;49.1;;;;;;;-0.53;100;971.8712;;;;
2020/01/02 01:19:01;;;;;;;97.4;50.3;;;;;;;-0.68;100;971.8716;;;;
2020/01/02 01:21:27;;;;;;;74.4;49.6;;;;;;;-0.68;100;971.8995;;;;
2020/01/02 01:23:52;;;;;;;124.9;54.7;;;;;;;-0.75;100;971.9716;;;;
2020/01/02 01:26:17;;;;;;;108.6;55.6;;;;;;;-0.73;100;971.9519;;;;
2020/01/02 01:28:43;;;;;;;101.2;54.9;;;;;;;-0.71;100;971.8566;;;;
2020/01/02 01:31:08;;;;;;;90.9;53.3;;;;;;;-0.61;100;971.9006;;;;
2020/01/02 01:33:33;;;;;;;87.8;50.5;;;;;;;-0.64;100;971.8947;;;;
2020/01/02 01:35:58;;;;;;;81;50.6;;;;;;;-0.67;100;971.897;;;;
2020/01/02 01:38:23;;;;;;;75.1;50.1;;;;;;;-0.66;100;971.9639;;;;
2020/01/02 01:40:48;;;;;;;64.8;46.7;;;;;;;-0.64;100;971.9344;;;;
2020/01/02 01:43:14;;;;;;;67.3;42.4;;;;;;;-0.73;100;972.0018;;;;
2020/01/02 01:45:39;;;;;;;76.6;44.4;;;;;;;-0.72;100;971.9564;;;;
2020/01/02 01:48:04;;;;;;;95.6;49.7;;;;;;;-1.15;100;972.0365;;;;
2020/01/02 01:50:30;;;;;;;99.6;48.5;;;;;;;-1.43;100;971.9532;;;;
2020/01/02 01:52:55;;;;;;;73.2;44;;;;;;;-1.36;100;971.9034;;;;
2020/01/02 01:55:20;;;;;;;62.8;41.9;;;;;;;-1.26;100;971.9167;;;;
2020/01/02 01:57:45;;;;;;;74.7;38.8;;;;;;;-1.25;100;971.9299;;;;
2020/01/02 02:00:11;;;;;;;53.2;37;;;;;;;-1.18;100;971.9041;;;;
2020/01/02 02:02:36;;;;;;;52.1;37;;;;;;;-1.12;100;971.9027;;;;
2020/01/02 02:05:01;;;;;;;48.3;38.3;;;;;;;-1.08;100;971.8395;;;;
2020/01/02 02:07:26;;;;;;;63.1;38.8;;;;;;;-1.27;100;971.8567;;;;
2020/01/02 02:09:51;;;;;;;58.4;41;;;;;;;-1.29;100;971.7612;;;;
2020/01/02 02:12:17;;;;;;;58.4;38.7;;;;;;;-1.32;100;971.8054;;;;
2020/01/02 02:14:42;;;;;;;60.2;41.3;;;;;;;-1.42;100;971.8524;;;;
2020/01/02 02:17:07;;;;;;;55.2;42.4;;;;;;;-1.38;100;971.8604;;;;
2020/01/02 02:19:32;;;;;;;56.9;42.7;;;;;;;-1.4;100;971.9161;;;;
2020/01/02 02:21:57;;;;;;;72.7;46.4;;;;;;;-1.48;100;971.9324;;;;
2020/01/02 02:24:22;;;;;;;57.8;41.7;;;;;;;-1.29;100;971.9547;;;;
2020/01/02 02:26:48;;;;;;;65.7;42.8;;;;;;;-1.54;100;971.9302;;;;
2020/01/02 02:29:13;;;;;;;55.6;42.6;;;;;;;-1.39;100;971.9172;;;;
2020/01/02 02:31:38;;;;;;;64.7;44.5;;;;;;;-1.43;100;971.9758;;;;
2020/01/02 02:34:03;;;;;;;52;42.8;;;;;;;-1.08;100;971.9758;;;;
2020/01/02 02:36:32;;;;;;;100.6;42.8;;;;;;;-1.61;100;971.9878;;;;
2020/01/02 02:39:11;;;;;;;59.8;43.5;;;;;;;-1.59;100;971.9833;;;;
2020/01/02 02:43:49;;;;;;;50.1;39.9;;;;;;;-1.29;100;972.0427;;;;
2020/01/02 02:46:51;;;;;;;59.7;41.3;;;;;;;-1.2;100;972.0225;;;;
2020/01/02 02:48:38;;;;;;;47.7;39.7;;;;;;;-1.1;100;971.9311;;;;
2020/01/02 02:51:00;;;;;;;48;39.6;;;;;;;-0.98;100;971.9239;;;;
2020/01/02 02:53:25;;;;;;;47.5;39.7;;;;;;;-0.94;100;971.894;;;;
2020/01/02 02:55:50;;;;;;;51.5;40.8;;;;;;;-1.02;100;971.9265;;;;
2020/01/02 02:58:15;;;;;;;57.1;44.9;;;;;;;-1.2;100;971.9071;;;;
2020/01/02 03:00:40;;;;;;;88.3;43;;;;;;;-1.3;100;971.9121;;;;
2020/01/02 03:03:06;;;;;;;76.7;47.7;;;;;;;-1.55;100;971.9327;;;;
2020/01/02 03:05:31;;;;;;;88.2;49.6;;;;;;;-1.51;100;971.9063;;;;
2020/01/02 03:07:56;;;;;;;87.7;51;;;;;;;-1.55;100;971.9057;;;;
2020/01/02 03:10:21;;;;;;;63.8;47.5;;;;;;;-1.21;100;971.8683;;;;
2020/01/02 03:12:46;;;;;;;71.3;49;;;;;;;-1.11;100;971.8997;;;;
2020/01/02 03:15:11;;;;;;;55.8;43.1;;;;;;;-0.92;100;971.9578;;;;
2020/01/02 03:17:37;;;;;;;55.9;42.6;;;;;;;-1;100;971.9106;;;;
2020/01/02 03:20:02;;;;;;;64.7;44;;;;;;;-1.07;100;971.8837;;;;
2020/01/02 03:22:27;;;;;;;61.2;45.6;;;;;;;-1.1;100;971.9061;;;;
2020/01/02 03:24:52;;;;;;;59.7;43.3;;;;;;;-0.99;100;971.8909;;;;
2020/01/02 03:27:18;;;;;;;66.2;42.9;;;;;;;-1.01;100;971.884;;;;
2020/01/02 03:29:43;;;;;;;75.2;49;;;;;;;-1.35;100;971.8348;;;;
2020/01/02 03:32:08;;;;;;;85.8;50.9;;;;;;;-1.36;100;971.8165;;;;
2020/01/02 03:34:33;;;;;;;73.3;50.9;;;;;;;-1.29;100;971.822;;;;
2020/01/02 03:36:59;;;;;;;64.2;47.8;;;;;;;-1.01;100;971.7608;;;;
2020/01/02 03:39:24;;;;;;;60.3;47.1;;;;;;;-1;100;971.7087;;;;
2020/01/02 03:41:49;;;;;;;86.7;49.3;;;;;;;-1.3;100;971.6867;;;;
2020/01/02 03:44:14;;;;;;;100;51.1;;;;;;;-1.45;100;971.6605;;;;
2020/01/02 03:46:39;;;;;;;68.4;49.3;;;;;;;-1.14;100;971.677;;;;
2020/01/02 03:49:04;;;;;;;68.9;50.7;;;;;;;-1.2;100;971.5914;;;;
2020/01/02 03:51:29;;;;;;;81.4;50.9;;;;;;;-1.34;100;971.6708;;;;
2020/01/02 03:53:55;;;;;;;64.2;47.4;;;;;;;-1.15;100;971.6281;;;;
2020/01/02 03:56:20;;;;;;;62.3;47.8;;;;;;;-1;100;971.6102;;;;
2020/01/02 03:58:46;;;;;;;62.6;48.1;;;;;;;-1.18;100;971.6555;;;;
2020/01/02 04:02:28;;;;;;;61.8;47.3;;;;;;;-1.42;100;971.6061;;;;
2020/01/02 04:04:53;;;;;;;60.3;46.1;;;;;;;-1.48;100;971.5546;;;;
2020/01/02 04:07:18;;;;;;;54.7;43.9;;;;;;;-1.31;100;971.5471;;;;
2020/01/02 04:09:43;;;;;;;57;45;;;;;;;-1.49;100;971.5491;;;;
2020/01/02 04:12:08;;;;;;;55.8;45;;;;;;;-1.42;100;971.5389;;;;
2020/01/02 04:14:34;;;;;;;51.2;41.9;;;;;;;-1.13;100;971.5636;;;;
2020/01/02 04:16:59;;;;;;;51.2;41.3;;;;;;;-1.28;100;971.572;;;;
2020/01/02 04:19:24;;;;;;;51.8;42;;;;;;;-1.41;100;971.5237;;;;
2020/01/02 04:21:49;;;;;;;49.6;39.5;;;;;;;-1.3;100;971.4992;;;;
2020/01/02 04:24:14;;;;;;;54.9;43.4;;;;;;;-1.51;100;971.4964;;;;
2020/01/02 04:26:39;;;;;;;55.5;44.8;;;;;;;-1.38;100;971.4395;;;;
2020/01/02 04:29:04;;;;;;;58.3;45.8;;;;;;;-1.65;100;971.4933;;;;
2020/01/02 04:31:36;;;;;;;57.5;45.4;;;;;;;-1.47;100;971.4972;;;;
2020/01/02 04:33:54;;;;;;;51.3;42.6;;;;;;;-1.24;100;971.5229;;;;
2020/01/02 04:38:44;;;;;;;55.2;44.7;;;;;;;-1.23;100;971.5377;;;;
2020/01/02 04:43:43;;;;;;;55.4;44.4;;;;;;;-1.41;100;971.4997;;;;
2020/01/02 04:46:00;;;;;;;47.8;40.4;;;;;;;-1.22;100;971.4549;;;;
2020/01/02 04:48:25;;;;;;;43.2;37.9;;;;;;;-1.08;100;971.4581;;;;
2020/01/02 04:50:51;;;;;;;46;40.5;;;;;;;-1.26;100;971.4716;;;;
2020/01/02 04:53:16;;;;;;;46.4;40.2;;;;;;;-1.5;100;971.4504;;;;
2020/01/02 04:55:41;;;;;;;48.5;41.8;;;;;;;-1.41;100;971.5139;;;;
2020/01/02 04:58:06;;;;;;;47.8;42.2;;;;;;;-1.38;100;971.5189;;;;
2020/01/02 05:00:31;;;;;;;44.6;39.7;;;;;;;-1.15;100;971.5081;;;;
2020/01/02 05:02:56;;;;;;;43.1;38.4;;;;;;;-1.09;100;971.4504;;;;
2020/01/02 05:05:22;;;;;;;44.8;39.9;;;;;;;-1.11;100;971.4403;;;;
2020/01/02 05:07:47;;;;;;;43.4;38.7;;;;;;;-0.89;100;971.313;;;;
2020/01/02 05:10:12;;;;;;;42.1;37.6;;;;;;;-0.83;99.58691;971.3887;;;;
2020/01/02 05:12:37;;;;;;;42;37.5;;;;;;;-0.99;100;971.4274;;;;
2020/01/02 05:15:02;;;;;;;43.8;39.1;;;;;;;-1.1;100;971.4957;;;;
2020/01/02 05:17:28;;;;;;;42.5;38;;;;;;;-1.08;100;971.5036;;;;
2020/01/02 05:19:53;;;;;;;45.9;41;;;;;;;-1.23;100;971.5809;;;;
2020/01/02 05:22:19;;;;;;;42.7;38.1;;;;;;;-1.19;100;971.585;;;;
2020/01/02 05:24:44;;;;;;;44.6;39.8;;;;;;;-1.28;100;971.5896;;;;
2020/01/02 05:27:09;;;;;;;43.5;38.9;;;;;;;-1.26;100;971.639;;;;
2020/01/02 05:29:34;;;;;;;42.1;37.7;;;;;;;-1.13;99.75;971.6365;;;;
2020/01/02 05:31:59;;;;;;;42.4;37.9;;;;;;;-1.06;99.06055;971.6072;;;;
2020/01/02 05:34:25;;;;;;;43.6;39;;;;;;;-1.17;99.4834;971.6498;;;;
2020/01/02 05:36:50;;;;;;;47.1;42;;;;;;;-1.43;100;971.6255;;;;
2020/01/02 05:39:15;;;;;;;43.3;38.6;;;;;;;-1.17;100;971.6851;;;;
2020/01/02 05:41:40;;;;;;;46.2;41.1;;;;;;;-1.33;100;971.6668;;;;
2020/01/02 05:44:05;;;;;;;47.5;42.2;;;;;;;-1.53;100;971.725;;;;
2020/01/02 05:46:31;;;;;;;49.7;44.3;;;;;;;-1.62;100;971.6733;;;;
2020/01/02 05:48:56;;;;;;;47.7;42.3;;;;;;;-1.45;100;971.6323;;;;
2020/01/02 05:51:21;;;;;;;50.1;44.4;;;;;;;-1.6;100;971.6859;;;;
2020/01/02 05:53:46;;;;;;;47.1;41.9;;;;;;;-1.37;100;971.7227;;;;
2020/01/02 05:56:12;;;;;;;49.2;43.8;;;;;;;-1.65;100;971.7464;;;;
2020/01/02 05:58:37;;;;;;;50.2;43.9;;;;;;;-1.42;100;971.7905;;;;
2020/01/02 06:01:02;;;;;;;48.2;43;;;;;;;-1.27;100;971.8044;;;;
2020/01/02 06:03:28;;;;;;;47.7;42.5;;;;;;;-1.43;100;971.8122;;;;
2020/01/02 06:05:53;;;;;;;47.4;41.7;;;;;;;-1.3;100;971.8562;;;;
2020/01/02 06:08:18;;;;;;;45.5;40.6;;;;;;;-1.17;100;971.8002;;;;
2020/01/02 06:10:43;;;;;;;49.3;43.3;;;;;;;-1.33;100;971.897;;;;
2020/01/02 06:13:09;;;;;;;53.3;46;;;;;;;-1.57;100;971.8579;;;;
2020/01/02 06:15:34;;;;;;;49.9;44.1;;;;;;;-1.27;100;971.9006;;;;
2020/01/02 06:17:59;;;;;;;52.7;45.2;;;;;;;-1.56;100;971.9028;;;;
2020/01/02 06:20:25;;;;;;;44.1;39;;;;;;;-1.19;100;971.8605;;;;
2020/01/02 06:22:50;;;;;;;42.1;37.2;;;;;;;-1.13;99.35742;971.8752;;;;
2020/01/02 06:25:24;;;;;;;43;37.6;;;;;;;-1.05;98.92871;971.8526;;;;
2020/01/02 06:27:50;;;;;;;44.3;38.9;;;;;;;-1.17;99.50586;971.8923;;;;
2020/01/02 06:30:15;;;;;;;44.3;39.4;;;;;;;-1.05;99.33398;971.9684;;;;
2020/01/02 06:32:40;;;;;;;45.3;40.3;;;;;;;-1.1;98.96094;971.9494;;;;
2020/01/02 06:35:08;;;;;;;49.8;42.6;;;;;;;-1.49;100;972.0069;;;;
2020/01/02 06:37:31;;;;;;;47.5;42.1;;;;;;;-1.41;100;972.0391;;;;
2020/01/02 06:39:56;;;;;;;44.1;39.2;;;;;;;-1.16;99.77441;972.0466;;;;
2020/01/02 06:42:38;;;;;;;47.1;40.6;;;;;;;-1.49;100;971.9733;;;;
2020/01/02 06:45:06;;;;;;;49.9;42.2;;;;;;;-1.51;100;971.9644;;;;
2020/01/02 06:47:12;;;;;;;50.2;42.5;;;;;;;-1.53;100;971.9961;;;;
2020/01/02 06:49:37;;;;;;;48.5;42.5;;;;;;;-1.45;100;971.985;;;;
2020/01/02 06:52:02;;;;;;;48.4;41.1;;;;;;;-1.52;100;972.0346;;;;
2020/01/02 06:54:27;;;;;;;48.5;40.9;;;;;;;-1.4;100;972.0002;;;;
2020/01/02 06:56:52;;;;;;;49.4;42;;;;;;;-1.51;100;972.1099;;;;
2020/01/02 06:59:17;;;;;;;47.7;40.7;;;;;;;-1.37;100;972.0769;;;;
2020/01/02 07:01:42;;;;;;;47.2;39.4;;;;;;;-1.28;100;972.1113;;;;
2020/01/02 07:04:07;;;;;;;51.8;42.8;;;;;;;-1.63;100;972.1309;;;;
2020/01/02 07:06:32;;;;;;;52.5;42.6;;;;;;;-1.56;100;972.1409;;;;
2020/01/02 07:08:57;;;;;;;53.8;44.3;;;;;;;-1.59;100;972.1658;;;;
2020/01/02 07:11:22;;;;;;;51.2;42.6;;;;;;;-1.64;100;972.2173;;;;
2020/01/02 07:13:48;;;;;;;53.1;43.8;;;;;;;-1.63;100;972.2106;;;;
2020/01/02 07:16:13;;;;;;;51.4;42.3;;;;;;;-1.61;100;972.2493;;;;
2020/01/02 07:18:39;;;;;;;55.9;44.9;;;;;;;-1.62;100;972.2396;;;;
2020/01/02 07:21:04;;;;;;;50.8;42.6;;;;;;;-1.42;100;972.2269;;;;
2020/01/02 07:23:29;;;;;;;48.9;40.8;;;;;;;-1.22;100;972.2235;;;;
2020/01/02 07:25:54;;;;;;;50.5;41.5;;;;;;;-1.15;100;972.1986;;;;
2020/01/02 07:28:19;;;;;;;47.6;40.2;;;;;;;-1.15;100;972.1539;;;;
2020/01/02 07:30:44;;;;;;;45.9;39.1;;;;;;;-0.99;99.50391;972.1622;;;;
2020/01/02 07:33:09;;;;;;;46.8;38.8;;;;;;;-1.09;99.17773;972.19;;;;
2020/01/02 07:35:34;;;;;;;50.7;41.7;;;;;;;-1.23;100;972.2327;;;;
2020/01/02 07:37:59;;;;;;;52.1;41.8;;;;;;;-1.39;100;972.15;;;;
2020/01/02 07:40:24;;;;;;;59.1;44.7;;;;;;;-1.48;100;972.1498;;;;
2020/01/02 07:42:49;;;;;;;53.6;43.8;;;;;;;-1.25;100;972.2461;;;;
2020/01/02 07:45:15;;;;;;;50.7;40.8;;;;;;;-1.47;100;972.2216;;;;
2020/01/02 07:47:40;;;;;;;54.4;43.7;;;;;;;-1.44;100;972.2006;;;;
2020/01/02 07:50:05;;;;;;;57.1;44.5;;;;;;;-1.4;100;972.3199;;;;
2020/01/02 07:52:30;;;;;;;50.4;42.2;;;;;;;-1.2;100;972.2614;;;;
2020/01/02 07:54:55;;;;;;;55.4;44.3;;;;;;;-1.37;100;972.3094;;;;
2020/01/02 07:57:20;;;;;;;54.2;43;;;;;;;-1.24;100;972.3605;;;;
2020/01/02 07:59:45;;;;;;;48.3;40.3;;;;;;;-1.05;100;972.3527;;;;
2020/01/02 08:02:10;;;;;;;47.7;39;;;;;;;-1.14;100;972.4073;;;;
2020/01/02 08:04:35;;;;;;;46.7;38.9;;;;;;;-1.09;100;972.3858;;;;
2020/01/02 08:07:00;;;;;;;46.3;38.9;;;;;;;-0.98;99.79688;972.4442;;;;
2020/01/02 08:09:25;;;;;;;45.4;37.3;;;;;;;-1.06;100;972.483;;;;
2020/01/02 08:11:50;;;;;;;46;38.4;;;;;;;-0.91;100;972.5323;;;;
2020/01/02 08:14:16;;;;;;;43.3;36.8;;;;;;;-1;99.63574;972.485;;;;
2020/01/02 08:16:41;;;;;;;42.9;36.4;;;;;;;-0.83;99.38477;972.4813;;;;
2020/01/02 08:19:06;;;;;;;42.5;36.3;;;;;;;-0.71;99.31348;972.4549;;;;
2020/01/02 08:21:31;;;;;;;43.5;37.4;;;;;;;-0.8;99.48047;972.4735;;;;
2020/01/02 08:23:56;;;;;;;45.6;38;;;;;;;-0.88;100;972.5198;;;;
2020/01/02 08:26:22;;;;;;;45.8;38.7;;;;;;;-1.05;100;972.455;;;;
2020/01/02 08:28:47;;;;;;;44.3;37.4;;;;;;;-0.82;99.84375;972.4772;;;;
2020/01/02 08:31:12;;;;;;;43.9;37.1;;;;;;;-0.8;99.6709;972.4437;;;;
2020/01/02 08:33:37;;;;;;;49.8;40.4;;;;;;;-1.12;100;972.4554;;;;
2020/01/02 08:36:03;;;;;;;44.6;38;;;;;;;-0.84;100;972.4899;;;;
2020/01/02 08:38:28;;;;;;;45.9;38.8;;;;;;;-0.85;100;972.4958;;;;
2020/01/02 08:40:53;;;;;;;47.1;39.1;;;;;;;-1.08;100;972.4841;;;;
2020/01/02 08:43:18;;;;;;;46.3;39;;;;;;;-0.86;100;972.4758;;;;
2020/01/02 08:45:43;;;;;;;43.4;37.1;;;;;;;-0.68;99.54199;972.5287;;;;
2020/01/02 08:48:08;;;;;;;50.2;40.5;;;;;;;-0.88;100;972.6063;;;;
2020/01/02 08:50:34;;;;;;;45.5;38.6;;;;;;;-0.59;99.78711;972.5591;;;;
2020/01/02 08:52:59;;;;;;;43.3;36.8;;;;;;;-0.37;98.30566;972.538;;;;
2020/01/02 08:55:24;;;;;;;42.7;36.3;;;;;;;-0.5;97.34375;972.6489;;;;
2020/01/02 08:57:49;;;;;;;46.9;39.5;;;;;;;-1.01;100;972.6986;;;;
2020/01/02 09:00:14;;;;;;;43.4;37.7;;;;;;;-0.66;99.72559;972.6983;;;;
2020/01/02 09:02:39;;;;;;;45.5;38.3;;;;;;;-0.92;99.98926;972.7369;;;;
2020/01/02 09:05:04;;;;;;;46.6;38.4;;;;;;;-0.93;100;972.8879;;;;
2020/01/02 09:08:50;;;;;;;45;38.2;;;;;;;-0.9;100;972.8728;;;;
2020/01/02 09:09:54;;;;;;;45.7;38.5;;;;;;;-1.05;100;972.8753;;;;
2020/01/02 09:12:19;;;;;;;44.2;37.3;;;;;;;-0.88;100;972.9397;;;;
2020/01/02 09:14:45;;;;;;;42.4;36.1;;;;;;;-0.68;99.38477;972.9497;;;;
2020/01/02 09:17:10;;;;;;;40.7;35.8;;;;;;;-0.72;99.6123;972.9391;;;;
2020/01/02 09:19:35;;;;;;;38.6;34;;;;;;;-0.59;99.36133;972.9785;;;;
2020/01/02 09:22:00;;;;;;;43.3;35.9;;;;;;;-0.6;98.82324;973.0242;;;;
2020/01/02 09:24:25;;;;;;;38.7;34.1;;;;;;;-0.53;99.00781;973.0172;;;;
2020/01/02 09:31:55;;;;;;;40.3;33.3;;;;;;;-0.68;99.11621;973.0009;;;;
2020/01/02 09:34:11;;;;;;;40.2;33.4;;;;;;;-0.7;98.35156;973.0261;;;;
2020/01/02 09:36:30;;;;;;;39.2;33.7;;;;;;;-0.77;98.29883;972.9651;;;;
2020/01/02 09:38:55;;;;;;;39.1;34.5;;;;;;;-0.79;99.86426;973.0126;;;;
2020/01/02 09:41:21;;;;;;;37.2;32.2;;;;;;;-0.41;98.12695;972.9863;;;;
2020/01/02 09:43:46;;;;;;;36.8;32.2;;;;;;;-0.36;98.44043;972.9777;;;;
2020/01/02 09:46:11;;;;;;;39.9;32.4;;;;;;;-0.59;97.51172;972.915;;;;
2020/01/02 09:48:36;;;;;;;37.8;32.4;;;;;;;-0.55;98.84473;972.8921;;;;
2020/01/02 09:51:01;;;;;;;39.2;33.7;;;;;;;-0.52;99.00977;972.8642;;;;
2020/01/02 09:53:26;;;;;;;38.7;33.8;;;;;;;-0.72;98.9502;972.853;;;;
2020/01/02 09:55:51;;;;;;;41.2;34.9;;;;;;;-0.77;99.59961;972.8342;;;;
2020/01/02 09:58:17;;;;;;;40.6;34.3;;;;;;;-0.79;100;972.923;;;;
2020/01/02 10:00:42;;;;;;;40.1;35;;;;;;;-0.6;99.50488;972.8442;;;;
2020/01/02 10:03:07;;;;;;;40.2;34.4;;;;;;;-0.48;99.08398;972.8431;;;;
2020/01/02 10:05:32;;;;;;;39.7;34.8;;;;;;;-0.21;97.51953;972.7528;;;;
2020/01/02 10:07:57;;;;;;;39.2;33.6;;;;;;;-0.11;97.29785;972.796;;;;
2020/01/02 10:10:22;;;;;;;39.8;34.4;;;;;;;-0.34;98.38867;972.8706;;;;
2020/01/02 10:12:48;;;;;;;39.7;34.2;;;;;;;0.08;96.69141;972.7784;;;;
2020/01/02 10:15:13;;;;;;;40.3;34.7;;;;;;;-0.16;96.8252;972.6956;;;;
2020/01/02 10:17:38;;;;;;;38.1;33.2;;;;;;;-0.11;95.98438;972.7232;;;;
2020/01/02 10:20:03;;;;;;;39.7;33.9;;;;;;;-0.29;97.74805;972.7441;;;;
2020/01/02 10:22:28;;;;;;;39;34.5;;;;;;;-0.11;96.78125;972.7676;;;;
2020/01/02 10:24:53;;;;;;;40.2;34.5;;;;;;;-0.45;97.63379;972.7261;;;;
2020/01/02 10:27:19;;;;;;;42.2;35.3;;;;;;;-0.45;99.15918;972.7461;;;;
2020/01/02 10:29:44;;;;;;;41;35.5;;;;;;;-0.49;99.7793;972.6353;;;;
2020/01/02 10:32:09;;;;;;;39.6;34.4;;;;;;;0;98.01855;972.5176;;;;
2020/01/02 10:34:34;;;;;;;42.1;35.6;;;;;;;-0.43;98.7041;972.5186;;;;
2020/01/02 10:36:59;;;;;;;41.9;35.6;;;;;;;-0.63;99.47656;972.5065;;;;
2020/01/02 10:39:25;;;;;;;42.1;35.6;;;;;;;-0.32;99.17969;972.5162;;;;
2020/01/02 10:41:50;;;;;;;41.5;34.9;;;;;;;-0.39;98.83789;972.4842;;;;
2020/01/02 10:44:15;;;;;;;40.9;33.3;;;;;;;-0.23;98.62891;972.4228;;;;
2020/01/02 10:46:40;;;;;;;36.2;31.4;;;;;;;0.27;96.12598;972.3699;;;;
2020/01/02 10:49:06;;;;;;;36.5;31.3;;;;;;;-0.09;96.05566;972.4131;;;;
2020/01/02 10:51:31;;;;;;;40.5;34.8;;;;;;;-0.63;98.90234;972.4143;;;;
2020/01/02 10:53:56;;;;;;;39.1;33.7;;;;;;;-0.57;99.10938;972.3658;;;;
2020/01/02 10:56:21;;;;;;;40.7;34.1;;;;;;;-0.56;99.81836;972.3493;;;;
2020/01/02 10:58:46;;;;;;;37.5;32;;;;;;;-0.14;97.8623;972.2648;;;;
2020/01/02 11:01:12;;;;;;;36.7;32;;;;;;;0.06;97.14648;972.2187;;;;
2020/01/02 11:03:37;;;;;;;37.9;33.3;;;;;;;-0.04;96.85156;972.1934;;;;
2020/01/02 11:06:02;;;;;;;37.7;32.8;;;;;;;-0.19;97.69434;972.1404;;;;
2020/01/02 11:08:28;;;;;;;38.8;33.4;;;;;;;-0.17;97.78809;972.0413;;;;
2020/01/02 11:10:53;;;;;;;36.2;32.2;;;;;;;0.13;97.06152;972.0242;;;;
2020/01/02 11:13:18;;;;;;;37.8;32.6;;;;;;;0.26;96.4834;972.0005;;;;
2020/01/02 11:15:43;;;;;;;36.6;32.4;;;;;;;0.28;96.5127;971.9601;;;;
2020/01/02 11:18:08;;;;;;;39.2;34;;;;;;;-0.02;97.37402;971.9109;;;;
2020/01/02 11:20:33;;;;;;;40;35.3;;;;;;;-0.09;97.89648;971.9166;;;;
2020/01/02 11:22:58;;;;;;;39.2;34.8;;;;;;;0.02;97.7334;971.9355;;;;
2020/01/02 11:25:23;;;;;;;37.6;33.5;;;;;;;0.33;96.97168;971.88;;;;
2020/01/02 11:27:49;;;;;;;38.6;33.8;;;;;;;0.46;95.04492;971.8134;;;;
2020/01/02 11:30:14;;;;;;;40.6;35.8;;;;;;;0.25;95.81836;971.7244;;;;
2020/01/02 11:35:24;;;;;;;40;34.3;;;;;;;0.51;95.12695;971.6687;;;;
2020/01/02 11:37:32;;;;;;;40.4;34.4;;;;;;;0.26;96.11523;971.5984;;;;
2020/01/02 11:39:55;;;;;;;37.6;33.5;;;;;;;0.5;95.51563;971.5939;;;;
2020/01/02 11:42:20;;;;;;;38.6;33.8;;;;;;;0.44;95.43457;971.5856;;;;
2020/01/02 11:44:45;;;;;;;38.3;33;;;;;;;0.5;94.9873;971.5698;;;;
2020/01/02 11:47:10;;;;;;;39.4;34.7;;;;;;;0.39;95.60156;971.5751;;;;
2020/01/02 11:49:36;;;;;;;40.4;34.4;;;;;;;0.37;95.61133;971.5453;;;;
2020/01/02 11:52:01;;;;;;;38.7;33.4;;;;;;;0.48;95.12988;971.5323;;;;
2020/01/02 11:54:26;;;;;;;39.6;33.9;;;;;;;0.55;95.64063;971.4885;;;;
2020/01/02 11:56:51;;;;;;;38.9;34.3;;;;;;;0.64;95.27832;971.5115;;;;
2020/01/02 11:59:16;;;;;;;39.1;34.1;;;;;;;0.74;93.89453;971.5223;;;;
2020/01/02 12:01:41;;;;;;;38.3;34.1;;;;;;;0.89;93.60254;971.471;;;;
2020/01/02 12:04:06;;;;;;;37.9;33.5;;;;;;;0.74;93.71484;971.4996;;;;
2020/01/02 12:06:31;;;;;;;38.1;32.3;;;;;;;0.39;95.52539;971.4636;;;;
2020/01/02 12:08:57;;;;;;;34.9;30.9;;;;;;;0.47;94.74316;971.4075;;;;
2020/01/02 12:11:22;;;;;;;35.3;30.6;;;;;;;0.78;94.36426;971.45;;;;
2020/01/02 12:13:47;;;;;;;33.9;30.1;;;;;;;0.79;94.32129;971.3104;;;;
2020/01/02 12:16:12;;;;;;;39.9;32.8;;;;;;;0.54;94.12109;971.3156;;;;
2020/01/02 12:18:37;;;;;;;35.5;31.5;;;;;;;0.69;94.09668;971.2695;;;;
2020/01/02 12:21:02;;;;;;;36.6;31.6;;;;;;;0.82;93.50586;971.1824;;;;
2020/01/02 12:23:27;;;;;;;38;32.5;;;;;;;0.83;93.2373;971.1756;;;;
2020/01/02 12:25:52;;;;;;;37.6;32.7;;;;;;;0.6;94.43848;971.2119;;;;
2020/01/02 12:28:17;;;;;;;38;32.5;;;;;;;0.56;94.7998;971.2153;;;;
2020/01/02 12:30:42;;;;;;;37.8;32.8;;;;;;;0.59;95.20996;971.2102;;;;
2020/01/02 12:33:07;;;;;;;39;33;;;;;;;0.69;95.03027;971.1283;;;;
2020/01/02 12:35:32;;;;;;;38.3;33.5;;;;;;;0.56;94.67578;971.147;;;;
2020/01/02 12:37:57;;;;;;;37.8;32.5;;;;;;;0.82;94.18262;971.1217;;;;
2020/01/02 12:40:23;;;;;;;40.7;34.1;;;;;;;0.69;93.9502;971.1353;;;;
2020/01/02 12:42:48;;;;;;;40.3;34.1;;;;;;;0.62;95.14844;971.0952;;;;
2020/01/02 12:45:13;;;;;;;38.9;33.5;;;;;;;0.55;95.06738;971.0577;;;;
2020/01/02 12:47:38;;;;;;;39.5;33.8;;;;;;;0.67;94.79004;971.0948;;;;
2020/01/02 12:50:03;;;;;;;40.4;34.2;;;;;;;0.81;94.34961;971.0586;;;;
2020/01/02 12:52:28;;;;;;;44.9;37.3;;;;;;;0.76;94.79883;971.0344;;;;
2020/01/02 12:54:53;;;;;;;44.3;37;;;;;;;0.7;95.25684;970.9881;;;;
2020/01/02 12:57:18;;;;;;;41.8;35.4;;;;;;;0.78;94.53418;970.976;;;;
2020/01/02 12:59:43;;;;;;;43.2;35.8;;;;;;;0.87;94.45313;970.9844;;;;
2020/01/02 13:02:08;;;;;;;45.5;36.8;;;;;;;0.64;94.75;971.0223;;;;
2020/01/02 13:04:34;;;;;;;45;37.1;;;;;;;0.63;95.66992;971.0079;;;;
2020/01/02 13:06:59;;;;;;;44.4;36.5;;;;;;;0.76;95.07031;970.9594;;;;
2020/01/02 13:09:24;;;;;;;45.6;38.8;;;;;;;0.59;95.52344;970.9138;;;;
2020/01/02 13:11:49;;;;;;;53.7;41.8;;;;;;;-0.1;99.68164;970.8976;;;;
2020/01/02 13:14:14;;;;;;;50.9;40.9;;;;;;;0.17;99.5293;970.8566;;;;
2020/01/02 13:16:39;;;;;;;49.1;39.9;;;;;;;0.5;97.92188;970.8617;;;;
2020/01/02 13:19:04;;;;;;;45.7;37.8;;;;;;;0.55;97.66406;970.8683;;;;
2020/01/02 13:21:29;;;;;;;45.9;38.2;;;;;;;0.69;96.49219;970.8459;;;;
2020/01/02 13:23:54;;;;;;;47.5;39.2;;;;;;;0.52;96.75684;970.786;;;;
2020/01/02 13:26:20;;;;;;;47.4;39.1;;;;;;;0.4;97.73047;970.8239;;;;
2020/01/02 13:28:45;;;;;;;47.5;38.7;;;;;;;0.48;97.38867;970.8069;;;;
2020/01/02 13:31:10;;;;;;;43.8;36.7;;;;;;;0.58;96.58008;970.7601;;;;
2020/01/02 13:33:35;;;;;;;44.6;37.4;;;;;;;0.16;98.37305;970.7903;;;;
2020/01/02 13:36:00;;;;;;;48;39.7;;;;;;;0.22;98.25977;970.8652;;;;
2020/01/02 13:38:25;;;;;;;44.1;36.9;;;;;;;0.45;97.87793;970.8591;;;;
2020/01/02 13:40:50;;;;;;;46.7;38.4;;;;;;;0.44;97.53809;970.7885;;;;
2020/01/02 13:43:15;;;;;;;45;38.1;;;;;;;0.6;97.42676;970.7952;;;;
2020/01/02 13:45:40;;;;;;;44.5;37.2;;;;;;;0.43;97.88281;970.7817;;;;
2020/01/02 13:48:05;;;;;;;43.8;37.1;;;;;;;0.53;97.12988;970.7226;;;;
2020/01/02 13:50:30;;;;;;;46.2;39.2;;;;;;;0.21;98.5293;970.7567;;;;
2020/01/02 13:52:57;;;;;;;45.8;38.8;;;;;;;0.35;99.13379;970.7758;;;;
2020/01/02 13:55:21;;;;;;;49.2;40.9;;;;;;;0.38;98.81445;970.7601;;;;
2020/01/02 13:57:46;;;;;;;47.2;38.6;;;;;;;0.56;98.10254;970.7344;;;;
2020/01/02 14:00:11;;;;;;;46.9;38.4;;;;;;;0.53;97.6377;970.8522;;;;
2020/01/02 14:02:36;;;;;;;45.1;37.7;;;;;;;0.76;96.87012;970.7482;;;;
2020/01/02 14:05:02;;;;;;;43.4;36.5;;;;;;;0.86;96.66797;970.7467;;;;
2020/01/02 14:07:27;;;;;;;44.7;37.5;;;;;;;0.79;96.22168;970.7261;;;;
2020/01/02 14:09:52;;;;;;;44.7;37.6;;;;;;;0.49;97.25586;970.7761;;;;
2020/01/02 14:12:17;;;;;;;46.3;37.3;;;;;;;0.62;97.375;970.747;;;;
2020/01/02 14:14:44;;;;;;;44.7;37.8;;;;;;;0.59;97.24316;970.7855;;;;
2020/01/02 14:17:27;;;;;;;46;37.2;;;;;;;0.49;97.02051;970.7094;;;;
2020/01/02 14:19:33;;;;;;;45.7;38.1;;;;;;;0.54;97.33398;970.6877;;;;
2020/01/02 14:21:58;;;;;;;48.6;38.9;;;;;;;0.16;98.86719;970.6588;;;;
2020/01/02 14:24:24;;;;;;;46.7;38.4;;;;;;;0.24;99.20898;970.6646;;;;
2020/01/02 14:26:49;;;;;;;49.3;39.4;;;;;;;0.15;99.33203;970.6746;;;;
2020/01/02 14:29:14;;;;;;;48.3;38.5;;;;;;;0.09;100;970.6836;;;;
2020/01/02 14:31:39;;;;;;;45.5;37.9;;;;;;;0.16;99.67383;970.6947;;;;
2020/01/02 14:34:04;;;;;;;48.9;38.3;;;;;;;0.11;99.41602;970.7484;;;;
2020/01/02 14:36:30;;;;;;;49.3;39.7;;;;;;;0.06;100;970.6563;;;;
2020/01/02 14:38:55;;;;;;;47.6;38.6;;;;;;;0.19;100;970.7195;;;;
2020/01/02 14:41:21;;;;;;;50;38.2;;;;;;;0.18;99.33203;970.6583;;;;
2020/01/02 14:43:46;;;;;;;45.5;36.6;;;;;;;0.16;99.39453;970.6733;;;;